Time;durP1;ratioP1;P1;durP2;ratioP2;P2;SDS_P1;SDS_P2;PMS_P1;PMS_P2;Temp;Humidity;BMP_temperature;BMP_pressure;BME280_temperature;BME280_humidity;BME280_pressure;Samples;Min_cycle;Max_cycle;Signal;HPM_P1;HPM_P2
2022/01/26 00:00:05;;;;;;;92.35;42.55;;;4.80;99.90;;;;;;5077678;28;20044;-83
2022/01/26 00:08:00;;;;;;;92.55;39.55;;;4.70;99.90;;;;;;5093836;28;20105;-84
2022/01/26 00:10:26;;;;;;;89.03;38.80;;;4.70;99.90;;;;;;5075447;28;20028;-84
2022/01/26 00:12:51;;;;;;;85.88;40.17;;;4.70;99.90;;;;;;5059247;28;20449;-84
2022/01/26 00:15:17;;;;;;;91.72;42.47;;;4.60;99.90;;;;;;5058831;28;20535;-88
2022/01/26 00:17:43;;;;;;;93.90;42.33;;;4.70;99.90;;;;;;5075162;28;20087;-84
2022/01/26 00:20:27;;;;;;;91.88;41.78;;;4.70;99.90;;;;;;5075381;28;20072;-84
2022/01/26 00:38:43;;;;;;;97.72;41.60;;;4.60;99.90;;;;;;5093178;28;20036;-85
2022/01/26 00:41:17;;;;;;;95.85;42.00;;;4.60;99.90;;;;;;5058845;28;20050;-84
2022/01/26 00:43:48;;;;;;;92.25;41.13;;;4.60;99.90;;;;;;5074879;28;20024;-84
2022/01/26 00:46:14;;;;;;;99.82;41.25;;;4.60;99.90;;;;;;5075213;28;20051;-85
2022/01/26 00:48:42;;;;;;;96.78;41.28;;;4.60;99.90;;;;;;5075081;28;20032;-85
2022/01/26 00:51:09;;;;;;;93.45;41.08;;;4.70;99.90;;;;;;5058383;28;20063;-85
2022/01/26 00:53:45;;;;;;;93.13;39.83;;;4.60;99.90;;;;;;5058179;28;20035;-84
2022/01/26 00:56:11;;;;;;;95.38;41.67;;;4.60;99.90;;;;;;5074922;28;20117;-84
2022/01/26 00:58:37;;;;;;;100.03;42.83;;;4.50;99.90;;;;;;5058077;28;20433;-83
2022/01/26 01:01:04;;;;;;;96.38;41.03;;;4.60;99.90;;;;;;5058503;28;20025;-83
2022/01/26 01:03:33;;;;;;;102.43;42.95;;;4.50;99.90;;;;;;5075005;28;20064;-83
2022/01/26 01:06:04;;;;;;;87.43;38.90;;;4.60;99.90;;;;;;5075021;28;20020;-83
2022/01/26 01:08:30;;;;;;;95.50;42.20;;;4.50;99.90;;;;;;5058941;28;20028;-83
2022/01/26 01:10:57;;;;;;;83.93;37.33;;;4.50;99.90;;;;;;5075164;28;20071;-83
2022/01/26 01:13:33;;;;;;;93.57;40.78;;;4.50;99.90;;;;;;5074899;28;20028;-83
2022/01/26 01:15:59;;;;;;;95.72;40.28;;;4.50;99.90;;;;;;5092989;28;20081;-83
2022/01/26 01:18:35;;;;;;;98.88;41.53;;;4.50;99.90;;;;;;5054397;28;20080;-84
2022/01/26 01:31:42;;;;;;;93.97;39.95;;;4.50;99.90;;;;;;5071708;28;20110;-84
2022/01/26 01:34:09;;;;;;;94.32;41.17;;;4.50;99.90;;;;;;5071523;28;20116;-84
2022/01/26 01:36:37;;;;;;;100.35;43.17;;;4.40;99.90;;;;;;5072235;28;20032;-84
2022/01/26 01:39:04;;;;;;;93.10;39.70;;;4.50;99.90;;;;;;5054950;28;20028;-84
2022/01/26 01:41:30;;;;;;;96.38;39.75;;;4.50;99.90;;;;;;5073613;28;20028;-84
2022/01/26 01:43:55;;;;;;;92.15;40.08;;;4.50;99.90;;;;;;5075064;28;20031;-84
2022/01/26 01:46:21;;;;;;;89.82;37.58;;;4.50;99.90;;;;;;5058507;28;20392;-83
2022/01/26 01:48:47;;;;;;;88.80;37.30;;;4.40;99.90;;;;;;5074959;28;20619;-84
2022/01/26 01:51:16;;;;;;;90.20;38.65;;;4.40;99.90;;;;;;5075030;28;20031;-84
2022/01/26 01:53:43;;;;;;;81.63;36.28;;;4.50;99.90;;;;;;5058457;28;20037;-84
2022/01/26 01:56:13;;;;;;;89.38;37.85;;;4.40;99.90;;;;;;5075029;28;20040;-84
2022/01/26 01:58:39;;;;;;;88.50;38.38;;;4.40;99.90;;;;;;5074703;28;20055;-83
2022/01/26 02:01:06;;;;;;;86.25;36.72;;;4.40;99.90;;;;;;5074730;28;20037;-83
2022/01/26 02:03:32;;;;;;;93.60;38.58;;;4.40;99.90;;;;;;5074557;28;20021;-83
2022/01/26 02:05:58;;;;;;;89.50;38.40;;;4.40;99.90;;;;;;5074898;28;20029;-83
2022/01/26 02:08:24;;;;;;;84.22;35.80;;;4.40;99.90;;;;;;5074465;28;20044;-83
2022/01/26 02:10:50;;;;;;;80.57;34.60;;;4.40;99.90;;;;;;5074246;28;20071;-83
2022/01/26 02:13:22;;;;;;;95.78;39.40;;;4.50;99.90;;;;;;5075555;28;20538;-83
2022/01/26 02:15:56;;;;;;;92.18;37.78;;;4.50;99.90;;;;;;5074112;28;20706;-83
2022/01/26 02:51:51;;;;;;;91.68;39.72;;;4.40;99.90;;;;;;5074393;28;20043;-83
2022/01/26 02:54:12;;;;;;;100.47;40.92;;;4.40;99.90;;;;;;5068006;28;20029;-83
2022/01/26 02:59:30;;;;;;;98.65;42.08;;;4.40;99.90;;;;;;5073850;28;20424;-82
2022/01/26 03:02:01;;;;;;;96.93;39.40;;;4.40;99.90;;;;;;5073217;28;20136;-82
2022/01/26 03:04:49;;;;;;;102.53;41.15;;;4.40;99.90;;;;;;5073856;28;20464;-83
2022/01/26 03:09:46;;;;;;;100.15;43.15;;;4.40;99.90;;;;;;5073520;28;20599;-83
2022/01/26 03:12:18;;;;;;;99.18;42.40;;;4.40;99.90;;;;;;5057771;28;20127;-83
2022/01/26 03:19:45;;;;;;;97.78;41.78;;;4.40;99.90;;;;;;5072857;28;20056;-83
2022/01/26 03:30:04;;;;;;;100.07;40.58;;;4.50;99.90;;;;;;5074288;28;20478;-83
2022/01/26 03:35:01;;;;;;;100.03;42.58;;;4.40;99.90;;;;;;5073953;28;20047;-83
2022/01/26 03:37:37;;;;;;;96.63;39.95;;;4.50;99.90;;;;;;5067422;28;20033;-83
2022/01/26 03:40:12;;;;;;;95.93;41.22;;;4.40;99.90;;;;;;5052931;28;20472;-84
2022/01/26 03:42:38;;;;;;;96.32;41.55;;;4.40;99.90;;;;;;5052734;28;20032;-85
2022/01/26 03:45:04;;;;;;;98.63;40.72;;;4.40;99.90;;;;;;5052786;28;20024;-84
2022/01/26 03:47:30;;;;;;;99.18;39.78;;;4.40;99.90;;;;;;5052794;28;20497;-84
2022/01/26 03:49:55;;;;;;;96.95;41.08;;;4.40;99.90;;;;;;5053527;28;20112;-84
2022/01/26 03:52:21;;;;;;;100.25;40.58;;;4.40;99.90;;;;;;5052703;28;20071;-86
2022/01/26 03:54:47;;;;;;;99.15;40.95;;;4.40;99.90;;;;;;5051854;28;20100;-81
2022/01/26 03:57:13;;;;;;;92.70;37.33;;;4.30;99.90;;;;;;5035793;28;20400;-82
2022/01/26 03:59:39;;;;;;;94.78;41.38;;;4.30;99.90;;;;;;5053376;28;20028;-83
2022/01/26 04:02:05;;;;;;;99.78;41.10;;;4.30;99.90;;;;;;5035687;28;20079;-83
2022/01/26 04:04:36;;;;;;;97.00;40.70;;;4.30;99.90;;;;;;5052416;28;20086;-83
2022/01/26 04:07:02;;;;;;;98.63;41.83;;;4.30;99.90;;;;;;5052538;28;20032;-83
2022/01/26 04:09:28;;;;;;;96.40;42.35;;;4.30;99.90;;;;;;5035894;28;20017;-83
2022/01/26 04:11:54;;;;;;;94.15;40.63;;;4.20;99.90;;;;;;5035650;28;20476;-83
2022/01/26 04:14:24;;;;;;;98.10;40.85;;;4.20;99.90;;;;;;5052121;28;20029;-84
2022/01/26 04:16:50;;;;;;;99.10;42.08;;;4.20;99.90;;;;;;5035840;28;20033;-83
2022/01/26 04:19:16;;;;;;;98.97;42.25;;;4.20;99.90;;;;;;5035164;28;20048;-83
2022/01/26 04:24:22;;;;;;;94.45;41.83;;;4.30;99.90;;;;;;5052206;28;20118;-83
2022/01/26 04:27:02;;;;;;;104.55;43.20;;;4.30;99.90;;;;;;5037432;28;20039;-83
2022/01/26 04:29:31;;;;;;;94.57;41.20;;;4.30;99.90;;;;;;5037598;28;20481;-83
2022/01/26 04:31:59;;;;;;;95.95;40.38;;;4.30;99.90;;;;;;5035665;28;20029;-82
2022/01/26 04:34:25;;;;;;;96.50;41.28;;;4.20;99.90;;;;;;5035690;28;20025;-83
2022/01/26 04:39:22;;;;;;;104.30;45.20;;;4.30;99.90;;;;;;5053166;28;20090;-83
2022/01/26 04:45:13;;;;;;;93.97;41.28;;;4.30;99.90;;;;;;5050882;28;20045;-83
2022/01/26 04:47:31;;;;;;;105.63;43.38;;;4.30;99.90;;;;;;5048958;28;20029;-83
2022/01/26 04:49:57;;;;;;;101.68;43.60;;;4.30;99.90;;;;;;5034666;28;20025;-83
2022/01/26 04:52:23;;;;;;;100.07;42.15;;;4.30;99.90;;;;;;5035149;28;20385;-83
2022/01/26 04:54:49;;;;;;;92.45;39.05;;;4.30;99.90;;;;;;5034992;28;20025;-83
2022/01/26 04:57:15;;;;;;;94.32;40.38;;;4.30;99.90;;;;;;5035370;28;20087;-83
2022/01/26 04:59:41;;;;;;;98.30;41.75;;;4.30;99.90;;;;;;5035146;28;20097;-83
2022/01/26 05:02:06;;;;;;;94.45;39.95;;;4.20;99.90;;;;;;5052580;28;20458;-83
2022/01/26 05:04:32;;;;;;;101.50;41.70;;;4.20;99.90;;;;;;5051028;28;20567;-83
2022/01/26 05:06:58;;;;;;;100.32;40.55;;;4.20;99.90;;;;;;5053156;28;20468;-83
2022/01/26 05:09:23;;;;;;;101.03;43.25;;;4.20;99.90;;;;;;5055053;28;20064;-82
2022/01/26 05:11:52;;;;;;;102.70;42.25;;;4.10;99.90;;;;;;5054923;28;20373;-84
2022/01/26 05:14:18;;;;;;;93.63;39.13;;;4.10;99.90;;;;;;5055523;28;20388;-83
2022/01/26 05:16:44;;;;;;;94.00;39.80;;;4.10;99.90;;;;;;5074659;28;20048;-83
2022/01/26 05:19:10;;;;;;;95.50;39.60;;;4.10;99.90;;;;;;5058385;28;20052;-83
2022/01/26 05:21:36;;;;;;;104.63;44.08;;;4.10;99.90;;;;;;5058975;28;20032;-83
2022/01/26 05:24:02;;;;;;;96.75;41.05;;;4.00;99.90;;;;;;5058721;28;20033;-82
2022/01/26 05:26:28;;;;;;;99.60;41.45;;;4.00;99.90;;;;;;5075431;28;20025;-83
2022/01/26 05:28:53;;;;;;;100.03;41.85;;;4.00;99.90;;;;;;5074395;28;20508;-83
2022/01/26 05:31:19;;;;;;;106.35;43.92;;;4.00;99.90;;;;;;5075117;28;20028;-83
2022/01/26 05:33:45;;;;;;;107.50;44.75;;;4.00;99.90;;;;;;5058689;28;20020;-83
2022/01/26 05:36:11;;;;;;;104.72;43.15;;;4.00;99.90;;;;;;5058591;28;20395;-83
2022/01/26 05:38:37;;;;;;;113.20;45.55;;;4.00;99.90;;;;;;5075586;28;20445;-83
2022/01/26 05:41:04;;;;;;;108.25;44.88;;;4.00;99.90;;;;;;5076513;28;20086;-83
2022/01/26 05:43:33;;;;;;;109.75;46.33;;;4.10;99.90;;;;;;5058975;28;20029;-83
2022/01/26 05:46:05;;;;;;;105.72;43.38;;;4.10;99.90;;;;;;5075403;28;20059;-83
2022/01/26 05:48:31;;;;;;;110.97;45.55;;;4.00;99.90;;;;;;5075299;28;20043;-82
2022/01/26 05:51:05;;;;;;;108.07;45.75;;;4.10;99.90;;;;;;5058458;28;20028;-83
2022/01/26 05:53:32;;;;;;;101.47;42.22;;;4.10;99.90;;;;;;5076072;28;20027;-83
2022/01/26 05:55:58;;;;;;;104.50;43.33;;;4.10;99.90;;;;;;5075007;28;20135;-83
2022/01/26 05:58:24;;;;;;;112.57;46.83;;;4.10;99.90;;;;;;5075329;28;20086;-83
2022/01/26 06:00:50;;;;;;;103.13;44.58;;;4.10;99.90;;;;;;5075036;28;20032;-83
2022/01/26 06:03:15;;;;;;;108.18;42.22;;;4.10;99.90;;;;;;5057617;28;20032;-83
2022/01/26 06:05:41;;;;;;;102.88;41.55;;;4.10;99.90;;;;;;5058146;28;20067;-83
2022/01/26 06:08:07;;;;;;;108.50;47.17;;;4.20;99.90;;;;;;5074603;28;20021;-83
2022/01/26 06:10:33;;;;;;;103.63;43.67;;;4.20;99.90;;;;;;5074555;28;20028;-84
2022/01/26 06:12:59;;;;;;;106.00;42.33;;;4.20;99.90;;;;;;5057827;28;20025;-83
2022/01/26 06:15:25;;;;;;;96.25;41.15;;;4.20;99.90;;;;;;5057916;28;20481;-83
2022/01/26 06:17:50;;;;;;;100.43;43.13;;;4.20;99.90;;;;;;5075588;28;20036;-85
2022/01/26 06:20:16;;;;;;;93.65;41.83;;;4.20;99.90;;;;;;5077397;28;20080;-83
2022/01/26 06:22:42;;;;;;;102.82;42.47;;;4.30;99.90;;;;;;5061178;28;20028;-83
2022/01/26 06:25:08;;;;;;;104.15;42.05;;;4.20;99.90;;;;;;5060946;28;20388;-83
2022/01/26 06:27:36;;;;;;;95.88;42.03;;;4.20;99.90;;;;;;5043344;28;20069;-83
2022/01/26 06:30:06;;;;;;;99.82;44.72;;;4.20;99.90;;;;;;5064485;28;20020;-83
2022/01/26 06:32:32;;;;;;;103.70;41.80;;;4.30;99.90;;;;;;5077851;28;20118;-85
2022/01/26 06:34:58;;;;;;;95.65;41.22;;;4.20;99.90;;;;;;5095568;28;20073;-84
2022/01/26 06:37:24;;;;;;;99.50;42.60;;;4.20;99.90;;;;;;5078183;28;20099;-83
2022/01/26 06:39:50;;;;;;;100.10;42.13;;;4.20;99.90;;;;;;5060920;28;20428;-83
2022/01/26 06:42:20;;;;;;;101.05;44.70;;;4.20;99.90;;;;;;5077011;28;20137;-83
2022/01/26 06:44:56;;;;;;;96.72;41.20;;;4.20;99.90;;;;;;5077529;28;20388;-83
2022/01/26 06:49:53;;;;;;;108.38;44.33;;;4.20;99.90;;;;;;5078076;28;20096;-83
2022/01/26 06:52:19;;;;;;;104.72;42.38;;;4.20;99.90;;;;;;5095165;28;20099;-83
2022/01/26 06:54:45;;;;;;;104.85;43.72;;;4.20;99.90;;;;;;5077341;28;20020;-83
2022/01/26 06:57:11;;;;;;;100.90;43.42;;;4.20;99.90;;;;;;5093965;28;20020;-83
2022/01/26 06:59:37;;;;;;;105.70;42.55;;;4.20;99.90;;;;;;5060517;28;20073;-83
2022/01/26 07:02:03;;;;;;;110.95;46.22;;;4.20;99.90;;;;;;5060255;28;20130;-84
2022/01/26 07:04:29;;;;;;;108.38;43.83;;;4.20;99.90;;;;;;5060383;28;20115;-83
2022/01/26 07:06:54;;;;;;;112.28;45.22;;;4.20;99.90;;;;;;5060306;28;20028;-83
2022/01/26 07:09:20;;;;;;;109.97;44.42;;;4.20;99.90;;;;;;5077013;28;20127;-83
2022/01/26 07:11:46;;;;;;;121.47;48.25;;;4.10;99.90;;;;;;5060161;28;20038;-83
2022/01/26 07:14:22;;;;;;;115.40;44.05;;;4.10;99.90;;;;;;5076704;28;20042;-84
2022/01/26 07:22:16;;;;;;;123.00;45.70;;;4.10;99.90;;;;;;5094534;28;20392;-84
2022/01/26 07:24:41;;;;;;;116.10;46.42;;;4.10;99.90;;;;;;5058632;28;20024;-84
2022/01/26 07:27:07;;;;;;;124.75;47.95;;;4.10;99.90;;;;;;5075914;28;20031;-83
2022/01/26 07:29:33;;;;;;;117.75;46.63;;;4.10;99.90;;;;;;5076267;28;20028;-85
2022/01/26 07:31:59;;;;;;;113.43;43.75;;;4.10;99.90;;;;;;5059878;28;20028;-83
2022/01/26 07:34:25;;;;;;;120.63;46.40;;;4.00;99.90;;;;;;5059862;28;20048;-84
2022/01/26 07:36:59;;;;;;;113.03;44.08;;;4.10;99.90;;;;;;5052977;28;20469;-89
2022/01/26 07:39:41;;;;;;;116.30;45.55;;;4.10;99.90;;;;;;5045005;28;20024;-82
2022/01/26 07:42:07;;;;;;;124.10;45.90;;;4.10;99.90;;;;;;5055021;28;20507;-84
2022/01/26 07:44:33;;;;;;;120.82;46.97;;;4.10;99.90;;;;;;5044276;28;20035;-83
2022/01/26 07:46:58;;;;;;;120.60;46.20;;;4.10;99.90;;;;;;5076211;28;20123;-83
2022/01/26 07:49:24;;;;;;;122.63;47.13;;;4.10;99.90;;;;;;5059471;28;20024;-83
2022/01/26 07:51:51;;;;;;;115.00;45.35;;;4.10;99.90;;;;;;5059342;28;20028;-83
2022/01/26 07:54:18;;;;;;;126.18;48.35;;;4.10;99.90;;;;;;5059208;28;20069;-83
2022/01/26 07:56:45;;;;;;;126.63;48.00;;;4.10;99.90;;;;;;5076399;28;20086;-83
2022/01/26 07:59:11;;;;;;;119.72;45.88;;;4.10;99.90;;;;;;5059489;28;20197;-83
2022/01/26 08:01:37;;;;;;;125.28;49.90;;;4.10;99.90;;;;;;5075673;28;20053;-83
2022/01/26 08:04:03;;;;;;;126.82;48.75;;;4.10;99.90;;;;;;5075803;28;20085;-83
2022/01/26 08:06:29;;;;;;;119.93;45.17;;;4.10;99.90;;;;;;5075810;28;20031;-84
2022/01/26 08:08:55;;;;;;;123.47;46.22;;;4.10;99.90;;;;;;5075536;28;20024;-83
2022/01/26 08:11:20;;;;;;;124.25;46.40;;;4.20;99.90;;;;;;5075772;28;20039;-83
2022/01/26 08:13:46;;;;;;;123.20;47.30;;;4.20;99.90;;;;;;5059076;28;20495;-83
2022/01/26 08:16:11;;;;;;;119.10;47.35;;;4.20;99.90;;;;;;5075709;28;20111;-84
2022/01/26 08:18:38;;;;;;;119.10;45.55;;;4.20;99.90;;;;;;5058681;28;20048;-83
2022/01/26 08:21:05;;;;;;;118.85;46.10;;;4.20;99.90;;;;;;5075612;28;20434;-83
2022/01/26 08:23:31;;;;;;;116.78;44.08;;;4.10;99.90;;;;;;5059032;28;20063;-83
2022/01/26 08:25:57;;;;;;;125.03;48.47;;;4.20;99.90;;;;;;5058355;28;20035;-83
2022/01/26 08:28:29;;;;;;;116.30;46.22;;;4.20;99.90;;;;;;5075100;28;20032;-84
2022/01/26 08:30:54;;;;;;;126.97;45.15;;;4.20;99.90;;;;;;5076646;28;20028;-83
2022/01/26 08:33:20;;;;;;;117.97;46.63;;;4.20;99.90;;;;;;5075487;28;20055;-84
2022/01/26 08:35:46;;;;;;;131.98;47.55;;;4.20;99.90;;;;;;5075364;28;20032;-84
2022/01/26 08:38:12;;;;;;;112.05;42.55;;;4.20;99.90;;;;;;5075825;28;20368;-83
2022/01/26 08:40:38;;;;;;;121.22;47.13;;;4.20;99.90;;;;;;5058668;28;20032;-82
2022/01/26 08:43:04;;;;;;;120.00;44.75;;;4.20;99.90;;;;;;5075625;28;20024;-83
2022/01/26 08:45:31;;;;;;;109.07;43.75;;;4.20;99.90;;;;;;5075173;28;20383;-82
2022/01/26 08:47:57;;;;;;;127.57;46.33;;;4.20;99.90;;;;;;5075723;28;20020;-83
2022/01/26 08:50:23;;;;;;;113.07;43.95;;;4.20;99.90;;;;;;5074793;28;20028;-83
2022/01/26 08:52:49;;;;;;;129.38;46.83;;;4.20;99.90;;;;;;5075613;28;20025;-84
2022/01/26 08:55:15;;;;;;;118.93;47.20;;;4.20;99.90;;;;;;5075579;28;20028;-82
2022/01/26 08:57:41;;;;;;;110.60;42.63;;;4.20;99.90;;;;;;5058641;28;20035;-83
2022/01/26 09:00:09;;;;;;;122.10;46.42;;;4.30;99.90;;;;;;5093299;28;20032;-84
2022/01/26 09:02:37;;;;;;;114.78;45.33;;;4.20;99.90;;;;;;5093150;28;20032;-86
2022/01/26 09:05:06;;;;;;;112.18;40.92;;;4.30;99.90;;;;;;5075147;28;20455;-83
2022/01/26 09:07:32;;;;;;;121.38;45.25;;;4.30;99.90;;;;;;5074803;28;20367;-83
2022/01/26 09:10:00;;;;;;;119.60;45.60;;;4.30;99.90;;;;;;5058545;28;20115;-83
2022/01/26 09:12:28;;;;;;;121.15;44.80;;;4.20;99.90;;;;;;5058743;28;20066;-83
2022/01/26 09:14:54;;;;;;;107.95;41.72;;;4.30;99.90;;;;;;5058611;28;20024;-83
2022/01/26 09:17:23;;;;;;;117.07;46.28;;;4.30;99.90;;;;;;5058351;28;20047;-83
2022/01/26 09:19:49;;;;;;;109.10;42.72;;;4.20;99.90;;;;;;5058416;28;20068;-83
2022/01/26 09:22:16;;;;;;;116.28;46.13;;;4.30;99.90;;;;;;5074731;28;20032;-84
2022/01/26 09:24:44;;;;;;;121.60;44.40;;;4.20;99.90;;;;;;5075049;28;20059;-83
2022/01/26 09:27:14;;;;;;;114.32;44.00;;;4.30;99.90;;;;;;5075159;28;20107;-83
2022/01/26 09:29:41;;;;;;;113.78;43.70;;;4.30;99.90;;;;;;5075384;28;20035;-84
2022/01/26 09:32:07;;;;;;;126.70;46.85;;;4.30;99.90;;;;;;5093252;28;20020;-83
2022/01/26 09:34:37;;;;;;;112.68;43.65;;;4.30;99.90;;;;;;5058712;28;20028;-83
2022/01/26 09:37:05;;;;;;;117.65;43.42;;;4.30;99.90;;;;;;5094074;28;20476;-83
2022/01/26 09:39:30;;;;;;;116.38;44.05;;;4.40;99.90;;;;;;5075792;28;20111;-83
2022/01/26 09:41:57;;;;;;;118.43;45.40;;;4.30;99.90;;;;;;5089589;28;20038;-87
2022/01/26 09:44:23;;;;;;;115.18;45.72;;;4.40;99.90;;;;;;5097294;28;20008;-89
2022/01/26 09:46:49;;;;;;;114.15;43.47;;;4.30;99.90;;;;;;5099010;28;20090;-89
2022/01/26 09:49:17;;;;;;;113.22;43.42;;;4.40;99.90;;;;;;5099841;28;20028;-90
2022/01/26 09:51:44;;;;;;;109.28;42.60;;;4.40;99.90;;;;;;5099805;28;20030;-86
2022/01/26 09:54:15;;;;;;;115.25;45.35;;;4.40;99.90;;;;;;5081343;28;20020;-83
2022/01/26 09:56:42;;;;;;;121.00;45.85;;;4.40;99.90;;;;;;5062846;28;20032;-83
2022/01/26 09:59:08;;;;;;;105.63;42.00;;;4.30;99.90;;;;;;5093254;28;20020;-83
2022/01/26 10:01:45;;;;;;;113.93;43.67;;;4.40;99.90;;;;;;5076002;28;20028;-83
2022/01/26 10:04:34;;;;;;;111.75;43.53;;;4.40;99.90;;;;;;5096773;28;20487;-83
2022/01/26 10:09:56;;;;;;;115.18;43.38;;;4.50;99.90;;;;;;5096662;28;20464;-83
2022/01/26 10:18:14;;;;;;;109.90;41.85;;;4.50;99.90;;;;;;5081014;28;20510;-84
2022/01/26 10:20:42;;;;;;;110.35;41.90;;;4.50;99.90;;;;;;5078094;28;20044;-83
2022/01/26 10:23:13;;;;;;;108.75;43.38;;;4.50;99.90;;;;;;5077847;28;20052;-83
2022/01/26 10:25:47;;;;;;;111.40;44.95;;;4.50;99.90;;;;;;5095934;28;20024;-83
2022/01/26 10:28:14;;;;;;;104.45;40.95;;;4.60;99.90;;;;;;5077773;28;20089;-88
2022/01/26 10:30:45;;;;;;;102.00;41.55;;;4.60;99.90;;;;;;5095817;28;20028;-83
2022/01/26 10:33:11;;;;;;;109.78;45.30;;;4.60;99.90;;;;;;5095601;28;20534;-83
2022/01/26 10:35:37;;;;;;;106.80;40.88;;;4.60;99.90;;;;;;5077644;28;20127;-83
2022/01/26 10:38:04;;;;;;;98.13;39.83;;;4.70;99.90;;;;;;5095833;28;20064;-83
2022/01/26 10:40:31;;;;;;;98.97;42.20;;;4.70;99.90;;;;;;5095382;28;20500;-84
2022/01/26 10:43:08;;;;;;;105.30;42.92;;;4.70;99.90;;;;;;5077372;28;20475;-83
2022/01/26 10:48:26;;;;;;;98.20;42.95;;;4.80;99.90;;;;;;5095643;28;20024;-82
2022/01/26 10:53:43;;;;;;;91.45;38.75;;;4.80;99.90;;;;;;5097804;28;20074;-83
2022/01/26 10:56:08;;;;;;;89.28;39.20;;;4.80;99.90;;;;;;5060987;28;20039;-83
2022/01/26 10:58:34;;;;;;;81.72;36.60;;;4.80;99.90;;;;;;5060140;28;20032;-84
2022/01/26 11:01:00;;;;;;;85.53;39.80;;;4.80;99.90;;;;;;5077252;28;20048;-86
2022/01/26 11:03:28;;;;;;;83.10;37.90;;;4.80;99.90;;;;;;5077096;28;20020;-84
2022/01/26 11:05:53;;;;;;;81.30;37.88;;;4.90;99.90;;;;;;5077207;28;20031;-88
2022/01/26 11:08:22;;;;;;;69.45;32.38;;;4.90;99.90;;;;;;5095018;28;20024;-85
2022/01/26 11:10:48;;;;;;;77.43;35.95;;;4.90;99.90;;;;;;5076980;28;20027;-84
2022/01/26 11:13:36;;;;;;;75.97;35.13;;;4.90;99.90;;;;;;5076193;28;20383;-83
2022/01/26 11:16:09;;;;;;;78.80;34.63;;;4.90;99.90;;;;;;5094884;28;20032;-85
2022/01/26 11:18:49;;;;;;;69.88;31.98;;;4.90;99.90;;;;;;5059728;28;20074;-85
2022/01/26 11:21:25;;;;;;;63.40;30.48;;;5.00;99.90;;;;;;5094998;28;20016;-88
2022/01/26 11:23:52;;;;;;;66.88;30.95;;;5.00;99.90;;;;;;5076658;28;20034;-83
2022/01/26 11:26:25;;;;;;;67.20;31.95;;;5.00;99.90;;;;;;5059949;28;20031;-84
2022/01/26 11:28:51;;;;;;;62.38;31.50;;;5.00;99.90;;;;;;5094403;28;20028;-83
2022/01/26 11:31:18;;;;;;;61.63;29.05;;;5.00;99.90;;;;;;5094828;28;20024;-84
2022/01/26 11:33:48;;;;;;;61.70;27.88;;;5.00;99.90;;;;;;5094618;28;20106;-83
2022/01/26 11:36:17;;;;;;;58.67;29.42;;;5.00;99.90;;;;;;5094335;28;20028;-83
2022/01/26 11:47:04;;;;;;;54.42;27.23;;;5.00;99.90;;;;;;5074207;28;20117;-84
2022/01/26 11:49:49;;;;;;;58.88;27.70;;;5.00;99.90;;;;;;5056062;28;20055;-83
2022/01/26 11:52:24;;;;;;;66.90;30.27;;;5.00;99.90;;;;;;5056068;28;20025;-83
2022/01/26 11:54:53;;;;;;;62.72;28.75;;;5.10;99.90;;;;;;5056286;28;20032;-83
2022/01/26 11:57:22;;;;;;;50.90;25.45;;;5.10;99.90;;;;;;5056703;28;20032;-84
2022/01/26 12:00:04;;;;;;;55.40;27.23;;;5.10;99.90;;;;;;5055978;28;20031;-83
2022/01/26 12:05:18;;;;;;;67.00;28.90;;;5.20;99.90;;;;;;5073517;28;20037;-83
2022/01/26 12:07:56;;;;;;;62.80;30.98;;;5.20;99.90;;;;;;5073816;28;20052;-83
2022/01/26 12:10:32;;;;;;;60.50;28.77;;;5.20;99.90;;;;;;5074646;28;20058;-84
2022/01/26 12:13:12;;;;;;;62.70;29.50;;;5.20;99.90;;;;;;5057531;28;20476;-83
2022/01/26 12:15:54;;;;;;;60.20;29.25;;;5.20;99.90;;;;;;5056652;28;20507;-84
2022/01/26 12:43:47;;;;;;;57.60;28.02;;;5.30;99.90;;;;;;5093540;28;20116;-84
2022/01/26 12:46:20;;;;;;;66.63;30.00;;;5.30;99.90;;;;;;5075231;28;20031;-84
2022/01/26 12:49:13;;;;;;;61.85;28.15;;;5.40;99.90;;;;;;5092665;28;20032;-83
2022/01/26 12:51:45;;;;;;;72.65;31.52;;;5.40;99.90;;;;;;5050698;28;20044;-83
2022/01/26 12:54:11;;;;;;;57.33;29.27;;;5.40;99.90;;;;;;5075242;28;20365;-83
2022/01/26 12:56:38;;;;;;;61.00;30.52;;;5.40;99.90;;;;;;5058227;28;20040;-83
2022/01/26 12:59:20;;;;;;;53.63;27.48;;;5.40;99.90;;;;;;5042131;28;20024;-84
2022/01/26 13:01:46;;;;;;;65.40;29.50;;;5.40;99.90;;;;;;5074953;28;20072;-83
2022/01/26 13:04:16;;;;;;;56.33;27.98;;;5.40;99.90;;;;;;5074910;28;20024;-83
2022/01/26 13:06:51;;;;;;;63.78;29.45;;;5.50;99.90;;;;;;5093009;28;20024;-83
2022/01/26 13:09:26;;;;;;;58.65;29.27;;;5.50;99.90;;;;;;5093261;28;20028;-82
2022/01/26 13:11:54;;;;;;;57.65;28.35;;;5.50;99.90;;;;;;5093190;28;20078;-83
2022/01/26 13:14:25;;;;;;;71.15;29.30;;;5.50;99.90;;;;;;5074897;28;20023;-83
2022/01/26 13:17:13;;;;;;;59.78;28.25;;;5.60;99.90;;;;;;5093030;28;20122;-83
2022/01/26 13:36:39;;;;;;;57.72;27.50;;;5.70;99.90;;;;;;5093605;28;20051;-83
2022/01/26 13:49:56;;;;;;;55.65;26.33;;;5.70;99.90;;;;;;5081539;28;20494;-84
2022/01/26 13:55:23;;;;;;;50.00;25.55;;;5.70;99.90;;;;;;5080543;28;20036;-82
2022/01/26 14:00:39;;;;;;;52.38;27.85;;;5.70;99.90;;;;;;5096360;28;20411;-83
2022/01/26 14:03:07;;;;;;;51.95;24.95;;;5.70;99.90;;;;;;5062772;28;20078;-82
2022/01/26 14:05:34;;;;;;;46.58;24.95;;;5.70;99.90;;;;;;5061774;28;20032;-83
2022/01/26 14:08:00;;;;;;;50.80;26.55;;;5.70;99.90;;;;;;5061478;28;20028;-82
2022/01/26 14:10:25;;;;;;;53.53;26.67;;;5.70;99.90;;;;;;5061337;28;20031;-83
2022/01/26 14:12:51;;;;;;;50.88;25.33;;;5.70;99.90;;;;;;5077850;28;20028;-83
2022/01/26 14:15:35;;;;;;;53.53;25.10;;;5.70;99.90;;;;;;5061373;28;20043;-82
2022/01/26 14:18:12;;;;;;;47.28;25.30;;;5.70;99.90;;;;;;5049646;28;20031;-82
2022/01/26 14:20:52;;;;;;;52.72;25.10;;;5.80;99.90;;;;;;5061889;28;20453;-82
2022/01/26 14:26:05;;;;;;;45.45;25.17;;;5.80;99.90;;;;;;5095866;28;20036;-82
2022/01/26 14:28:34;;;;;;;47.25;24.15;;;5.80;99.90;;;;;;5060988;28;20024;-82
2022/01/26 14:31:27;;;;;;;44.10;26.08;;;5.80;99.90;;;;;;5078204;28;20020;-82
2022/01/26 14:36:48;;;;;;;55.15;27.48;;;5.80;99.90;;;;;;5064009;28;20051;-82
2022/01/26 14:55:42;;;;;;;48.35;24.90;;;6.00;99.90;;;;;;5079122;28;20135;-82
2022/01/26 15:49:06;;;;;;;48.13;25.27;;;6.00;99.90;;;;;;5058590;28;20047;-82
2022/01/26 16:21:44;;;;;;;51.38;27.23;;;6.00;99.90;;;;;;5011594;28;20045;-82
2022/01/26 16:27:39;;;;;;;53.10;27.42;;;6.00;99.90;;;;;;5046596;28;20048;-83
2022/01/26 18:17:56;;;;;;;68.38;34.00;;;5.60;99.90;;;;;;5020479;28;20037;-85
2022/01/26 18:26:07;;;;;;;70.38;35.20;;;5.50;99.90;;;;;;5040684;28;20079;-84
2022/01/26 18:49:38;;;;;;;71.68;34.70;;;5.40;99.90;;;;;;5054920;28;20067;-83
2022/01/26 18:52:06;;;;;;;78.95;37.17;;;5.40;99.90;;;;;;5049478;28;20099;-82
2022/01/26 18:54:39;;;;;;;67.00;34.00;;;5.40;99.90;;;;;;5074091;28;20457;-82
2022/01/26 18:57:09;;;;;;;70.68;34.78;;;5.40;99.90;;;;;;5074724;28;20038;-82
2022/01/26 18:59:37;;;;;;;69.03;34.42;;;5.40;99.90;;;;;;5058012;28;20027;-85
2022/01/26 19:02:03;;;;;;;75.28;35.60;;;5.40;99.90;;;;;;5053642;28;20025;-85
2022/01/26 19:04:38;;;;;;;64.07;32.65;;;5.40;99.90;;;;;;5052860;28;20028;-82
2022/01/26 19:07:05;;;;;;;70.03;34.92;;;5.40;99.90;;;;;;5074741;28;20507;-82
2022/01/26 19:09:35;;;;;;;65.45;32.85;;;5.40;99.90;;;;;;5073629;28;20035;-81
2022/01/26 19:12:05;;;;;;;70.07;35.67;;;5.40;99.90;;;;;;5073592;28;20413;-82
2022/01/26 19:14:35;;;;;;;73.95;35.67;;;5.40;99.90;;;;;;5074973;28;20027;-82
2022/01/26 19:20:15;;;;;;;67.95;34.13;;;5.40;99.90;;;;;;5050990;28;20048;-83
2022/01/26 19:23:03;;;;;;;69.10;34.42;;;5.40;99.90;;;;;;5055207;28;20029;-83
2022/01/26 19:25:37;;;;;;;71.38;33.50;;;5.40;99.90;;;;;;5049615;28;20424;-83
2022/01/26 19:33:20;;;;;;;68.70;33.42;;;5.40;99.90;;;;;;5054304;28;20477;-83
2022/01/26 19:43:38;;;;;;;69.35;32.83;;;5.40;99.90;;;;;;5073929;28;20071;-82
2022/01/26 19:51:36;;;;;;;70.07;32.95;;;5.30;99.90;;;;;;5073643;28;20040;-82
2022/01/26 19:54:02;;;;;;;61.95;30.38;;;5.30;99.90;;;;;;5056292;28;20114;-83
2022/01/26 19:56:28;;;;;;;62.63;30.60;;;5.30;99.90;;;;;;5072210;28;20040;-83
2022/01/26 19:58:53;;;;;;;63.70;30.25;;;5.30;99.90;;;;;;5055682;28;20112;-83
2022/01/26 20:01:20;;;;;;;61.85;29.70;;;5.30;99.90;;;;;;5055624;28;20115;-83
2022/01/26 20:03:45;;;;;;;62.55;29.50;;;5.30;99.90;;;;;;5071902;28;20028;-86
2022/01/26 20:06:13;;;;;;;64.25;30.88;;;5.30;99.90;;;;;;5047403;28;20370;-83
2022/01/26 20:08:56;;;;;;;58.55;29.17;;;5.30;99.90;;;;;;5036669;28;20021;-83